Time;durP1;ratioP1;P1;durP2;ratioP2;P2;SDS_P1;SDS_P2;PMS_P1;PMS_P2;Temp;Humidity;BMP_temperature;BMP_pressure;BME280_temperature;BME280_humidity;BME280_pressure;Samples;Min_cycle;Max_cycle;Signal;HPM_P1;HPM_P2
2022/08/01 00:02:27;;;;;;;4.40;4.00;;;;;;;19.17;69.51;98734.00;238423;1192;139724;-59
2022/08/01 00:07:30;;;;;;;7.30;4.40;;;;;;;19.15;69.44;98733.13;238102;1193;139234;-59
2022/08/01 00:12:33;;;;;;;7.30;5.10;;;;;;;19.10;69.47;98730.34;238816;1191;138856;-60
2022/08/01 00:17:37;;;;;;;7.40;5.00;;;;;;;19.10;69.53;98723.39;238726;1191;138996;-60
2022/08/01 00:22:40;;;;;;;7.30;4.80;;;;;;;19.06;69.43;98723.97;238458;1192;140229;-58
2022/08/01 00:27:43;;;;;;;7.40;4.20;;;;;;;19.05;69.48;98722.77;238323;1191;141083;-58
2022/08/01 00:32:45;;;;;;;7.10;5.10;;;;;;;19.06;69.37;98724.66;238541;1192;139587;-59
2022/08/01 00:37:48;;;;;;;8.90;5.00;;;;;;;19.05;69.45;98727.98;238829;1192;139468;-61
2022/08/01 00:42:51;;;;;;;8.00;5.70;;;;;;;19.01;69.39;98726.96;238772;1190;140153;-59
2022/08/01 00:47:54;;;;;;;10.20;5.00;;;;;;;18.99;69.39;98725.39;238401;1192;138938;-56
2022/08/01 00:52:58;;;;;;;7.10;4.80;;;;;;;18.98;69.42;98730.65;238519;1192;141326;-57
2022/08/01 00:58:02;;;;;;;7.20;5.20;;;;;;;19.01;69.40;98730.90;238224;1192;139544;-59
2022/08/01 01:03:08;;;;;;;9.50;5.50;;;;;;;19.02;69.45;98730.84;238511;1191;139711;-60
2022/08/01 01:08:19;;;;;;;5.90;5.20;;;;;;;18.98;69.30;98733.17;238338;1192;139717;-61
2022/08/01 01:13:37;;;;;;;8.10;5.50;;;;;;;18.91;69.23;98737.09;238654;1192;139323;-59
2022/08/01 01:19:00;;;;;;;7.80;5.20;;;;;;;18.91;69.35;98736.05;238666;1192;140227;-60
2022/08/01 01:24:10;;;;;;;9.10;5.30;;;;;;;18.90;69.23;98736.67;238559;1190;140104;-59
2022/08/01 01:29:17;;;;;;;12.30;5.70;;;;;;;18.86;69.18;98738.05;238543;1192;138816;-60
2022/08/01 01:34:23;;;;;;;6.40;5.70;;;;;;;18.81;69.36;98740.34;238690;1191;139279;-60
2022/08/01 01:39:29;;;;;;;7.80;5.60;;;;;;;18.86;69.44;98739.88;238728;1191;140354;-59
2022/08/01 01:44:34;;;;;;;7.90;5.60;;;;;;;18.86;69.46;98738.53;238284;1192;140423;-60
2022/08/01 01:49:39;;;;;;;9.40;5.80;;;;;;;18.81;69.29;98740.54;238201;1193;139741;-60
2022/08/01 01:54:45;;;;;;;;;;;;;;;18.77;69.28;98738.07;238802;1192;140083;-58
2022/08/01 01:59:50;;;;;;;10.30;7.20;;;;;;;18.74;69.36;98738.17;238890;1191;127080;-60
2022/08/01 02:04:55;;;;;;;6.30;5.40;;;;;;;18.69;69.26;98735.02;238490;1192;139093;-61
2022/08/01 02:10:00;;;;;;;8.50;5.80;;;;;;;18.68;69.22;98734.20;238152;1192;141803;-57
2022/08/01 02:15:04;;;;;;;9.50;6.20;;;;;;;18.69;69.41;98732.52;238516;1191;140198;-58
2022/08/01 02:20:08;;;;;;;11.20;6.40;;;;;;;18.68;69.41;98729.38;238749;1191;139698;-60
2022/08/01 02:25:26;;;;;;;16.10;7.10;;;;;;;18.65;69.27;98730.42;238399;1192;139499;-61
2022/08/01 02:30:39;;;;;;;8.80;6.20;;;;;;;18.59;69.21;98733.64;238345;1192;138969;-61
2022/08/01 02:35:45;;;;;;;13.70;6.40;;;;;;;18.55;69.35;98734.84;238687;1191;140367;-61
2022/08/01 02:41:12;;;;;;;10.90;6.50;;;;;;;18.57;69.35;98741.23;238724;1192;140060;-61
2022/08/01 02:46:25;;;;;;;9.80;6.90;;;;;;;18.59;69.52;98738.59;238159;1192;139242;-61
2022/08/01 02:51:30;;;;;;;9.90;6.80;;;;;;;18.58;69.54;98749.05;238118;1193;138911;-60
2022/08/01 02:56:34;;;;;;;10.30;7.10;;;;;;;18.55;69.48;98750.59;238608;1192;139266;-60
2022/08/01 03:01:39;;;;;;;11.20;7.20;;;;;;;18.54;69.40;98750.72;238665;1191;140017;-61
2022/08/01 03:06:45;;;;;;;11.70;8.20;;;;;;;18.56;69.40;98756.08;238400;1192;139840;-61
2022/08/01 03:11:50;;;;;;;13.60;8.60;;;;;;;18.59;69.42;98762.84;238251;1192;139604;-61
2022/08/01 03:16:55;;;;;;;15.10;8.40;;;;;;;18.57;69.22;98763.93;238380;1191;139489;-61
2022/08/01 03:21:59;;;;;;;11.10;8.40;;;;;;;18.49;69.03;98764.72;238841;1192;139474;-59
2022/08/01 03:27:03;;;;;;;9.50;7.90;;;;;;;18.48;69.16;98764.64;238318;1191;139853;-58
2022/08/01 03:32:10;;;;;;;12.80;8.50;;;;;;;18.50;69.24;98759.24;238245;1192;151883;-62
2022/08/01 03:37:42;;;;;;;11.10;8.90;;;;;;;18.53;69.15;98758.57;238906;1191;140412;-59
2022/08/01 03:43:22;;;;;;;17.50;10.10;;;;;;;18.53;69.09;98761.07;238875;1190;139112;-60
2022/08/01 03:48:32;;;;;;;12.00;10.00;;;;;;;18.49;69.04;98760.80;238114;1193;139462;-59
2022/08/01 03:53:36;;;;;;;14.80;10.30;;;;;;;18.45;68.69;98773.41;238145;1193;140303;-60
2022/08/01 03:58:44;;;;;;;16.40;11.30;;;;;;;18.43;68.88;98777.11;238690;1191;139744;-58
2022/08/01 04:03:52;;;;;;;16.10;11.70;;;;;;;18.44;69.04;98779.19;238798;1192;139378;-58
2022/08/01 04:08:55;;;;;;;16.20;12.40;;;;;;;18.40;68.89;98776.92;238275;1192;139722;-59
2022/08/01 04:13:58;;;;;;;15.20;11.30;;;;;;;18.34;68.74;98778.74;238400;1192;139357;-59
2022/08/01 04:19:01;;;;;;;16.50;10.10;;;;;;;18.34;68.79;98781.41;238823;1190;141251;-61
2022/08/01 04:24:12;;;;;;;80.30;65.80;;;;;;;18.43;69.63;98783.77;238345;1190;139911;-61
2022/08/01 04:29:17;;;;;;;19.30;14.20;;;;;;;18.56;69.44;98782.12;238211;1192;140014;-59
2022/08/01 04:34:24;;;;;;;97.80;81.10;;;;;;;18.73;70.21;98784.56;237992;1192;140481;-58
2022/08/01 04:39:31;;;;;;;15.80;13.20;;;;;;;18.99;70.25;98784.84;238667;1192;139543;-58
2022/08/01 04:44:52;;;;;;;18.00;14.40;;;;;;;19.25;70.06;98784.02;238589;1191;139901;-59
2022/08/01 04:49:56;;;;;;;32.30;28.80;;;;;;;19.41;69.67;98785.64;238125;1192;140995;-59
2022/08/01 04:54:59;;;;;;;20.60;16.30;;;;;;;19.53;69.45;98784.38;238349;1192;140056;-59
2022/08/01 05:00:04;;;;;;;21.10;15.60;;;;;;;19.59;69.07;98792.71;238669;1192;139518;-59
2022/08/01 05:05:07;;;;;;;17.60;13.30;;;;;;;19.60;68.70;98791.38;238697;1192;139463;-59
2022/08/01 05:10:10;;;;;;;68.00;60.90;;;;;;;19.61;68.37;98791.80;238386;1192;139866;-61
2022/08/01 05:15:13;;;;;;;16.40;13.20;;;;;;;19.55;67.84;98791.61;238352;1191;209436;-61
2022/08/01 05:20:17;;;;;;;16.90;14.00;;;;;;;19.28;67.30;98794.35;238718;1191;140038;-61
2022/08/01 05:25:23;;;;;;;17.70;14.60;;;;;;;19.07;67.30;98795.55;238619;1192;140176;-61
2022/08/01 05:30:46;;;;;;;16.70;13.00;;;;;;;18.95;67.64;98796.70;238704;1192;139341;-60
2022/08/01 05:35:49;;;;;;;15.00;12.60;;;;;;;19.03;68.02;98796.55;238649;1191;139870;-58
2022/08/01 05:40:52;;;;;;;26.60;18.50;;;;;;;19.15;68.18;98799.98;238868;1191;139272;-57
2022/08/01 05:45:55;;;;;;;21.40;14.40;;;;;;;19.16;67.69;98797.21;238720;1191;139362;-58
2022/08/01 05:50:58;;;;;;;17.70;13.30;;;;;;;19.11;67.61;98798.55;238189;1192;140420;-58
2022/08/01 05:56:01;;;;;;;16.80;12.60;;;;;;;19.11;67.74;98800.77;238400;1192;139918;-56
2022/08/01 06:01:04;;;;;;;14.00;11.70;;;;;;;19.11;67.74;98804.52;238889;1190;139782;-59
2022/08/01 06:06:07;;;;;;;17.20;12.90;;;;;;;19.15;67.97;98804.84;238724;1192;140068;-59
2022/08/01 06:11:18;;;;;;;23.10;16.80;;;;;;;19.29;68.20;98798.98;238540;1192;139592;-59
2022/08/01 06:16:25;;;;;;;15.40;11.60;;;;;;;19.39;68.06;98800.25;238415;1192;139797;-60
2022/08/01 06:21:28;;;;;;;14.60;10.80;;;;;;;19.46;68.07;98805.65;238660;1192;139029;-60
2022/08/01 06:26:31;;;;;;;16.40;9.80;;;;;;;19.51;67.97;98808.15;238671;1192;139587;-60
2022/08/01 06:31:34;;;;;;;16.10;10.10;;;;;;;19.61;67.80;98809.47;238424;1192;140185;-60
2022/08/01 06:36:37;;;;;;;12.40;10.00;;;;;;;19.71;67.93;98812.48;238797;1192;139515;-59
2022/08/01 06:41:41;;;;;;;14.20;8.50;;;;;;;19.89;68.22;98814.54;238191;1192;139241;-60
2022/08/01 06:46:44;;;;;;;12.10;8.20;;;;;;;20.05;68.11;98812.16;238814;1192;139092;-57
2022/08/01 06:51:47;;;;;;;12.90;9.00;;;;;;;20.17;67.99;98816.17;237900;1192;140132;-58
2022/08/01 06:56:50;;;;;;;11.00;6.50;;;;;;;20.28;68.16;98815.30;238327;1192;139767;-58
2022/08/01 07:01:53;;;;;;;72.40;54.00;;;;;;;20.42;67.86;98812.52;238604;1192;140361;-59
2022/08/01 07:06:56;;;;;;;13.40;7.60;;;;;;;20.52;67.51;98812.73;238737;1192;139887;-59
2022/08/01 07:12:00;;;;;;;10.30;7.00;;;;;;;20.62;67.41;98810.69;238228;1191;140373;-58
2022/08/01 07:17:03;;;;;;;6.70;5.60;;;;;;;20.75;67.35;98816.27;238013;1192;139275;-59
2022/08/01 07:22:06;;;;;;;9.00;5.40;;;;;;;20.81;66.90;98815.57;238688;1192;140438;-58
2022/08/01 07:27:09;;;;;;;29.10;21.70;;;;;;;20.88;66.80;98812.10;238397;1192;139462;-60
2022/08/01 07:32:29;;;;;;;8.10;5.00;;;;;;;20.98;66.57;98811.95;238051;1192;139838;-58
2022/08/01 07:37:31;;;;;;;5.50;4.40;;;;;;;21.00;66.12;98811.89;238285;1193;139166;-59
2022/08/01 07:42:51;;;;;;;7.10;4.60;;;;;;;21.12;65.99;98812.48;238493;1192;139000;-58
2022/08/01 07:47:54;;;;;;;6.60;4.60;;;;;;;21.26;65.86;98811.60;238414;1192;138742;-59
2022/08/01 07:52:57;;;;;;;6.70;4.10;;;;;;;21.40;65.51;98811.48;238128;1192;139109;-58
2022/08/01 07:57:59;;;;;;;8.20;4.10;;;;;;;21.51;65.17;98805.44;238125;1192;138445;-59
2022/08/01 08:03:02;;;;;;;154.10;107.70;;;;;;;21.59;64.84;98803.83;238423;1191;140377;-59
2022/08/01 08:08:07;;;;;;;8.90;6.50;;;;;;;21.63;64.24;98801.02;238616;1190;139890;-59
2022/08/01 08:13:10;;;;;;;5.90;3.20;;;;;;;21.70;63.78;98798.73;238142;1193;139206;-60
2022/08/01 08:18:13;;;;;;;46.60;41.50;;;;;;;21.77;62.96;98794.59;237994;1192;139314;-59
2022/08/01 08:28:46;;;;;;;5.60;2.90;;;;;;;22.03;63.11;98797.44;238647;1192;139408;-59
2022/08/01 08:33:49;;;;;;;8.90;3.60;;;;;;;22.12;62.65;98794.17;238437;1192;139077;-60
2022/08/01 08:38:51;;;;;;;4.50;3.00;;;;;;;22.20;62.36;98797.10;238429;1192;140833;-59
2022/08/01 08:43:56;;;;;;;6.00;2.90;;;;;;;22.27;62.13;98797.20;238399;1193;138639;-59
2022/08/01 08:49:03;;;;;;;5.90;3.50;;;;;;;22.34;61.95;98798.02;238652;1191;139569;-59
2022/08/01 08:54:11;;;;;;;5.40;2.70;;;;;;;22.41;61.87;98799.55;238143;1193;139293;-59
2022/08/01 08:59:14;;;;;;;5.60;3.10;;;;;;;22.49;61.35;98799.71;238321;1192;139055;-59
2022/08/01 09:04:18;;;;;;;5.20;3.20;;;;;;;22.58;61.02;98799.42;238357;1192;139157;-59
2022/08/01 09:09:24;;;;;;;3.80;2.40;;;;;;;22.70;60.83;98798.41;238619;1191;138607;-60
2022/08/01 09:14:29;;;;;;;6.10;3.20;;;;;;;22.83;61.08;98790.61;238342;1192;139846;-60
2022/08/01 09:19:38;;;;;;;5.10;2.40;;;;;;;22.99;61.00;98796.91;238282;1193;139619;-59
2022/08/01 09:25:16;;;;;;;39.10;34.00;;;;;;;23.13;60.34;98803.21;238325;1192;140072;-59
2022/08/01 09:30:20;;;;;;;11.80;8.00;;;;;;;23.26;60.03;98806.30;238523;1192;139740;-59
2022/08/01 09:35:34;;;;;;;5.60;2.10;;;;;;;23.45;59.69;98799.52;238122;1193;139255;-58
2022/08/01 09:40:54;;;;;;;6.30;3.20;;;;;;;23.64;59.00;98798.67;238243;1192;140498;-60
2022/08/01 09:46:08;;;;;;;15.80;5.80;;;;;;;23.84;58.58;98798.83;238700;1190;139712;-58
2022/08/01 09:51:37;;;;;;;8.30;4.30;;;;;;;23.97;58.80;98796.34;238576;1192;139534;-59
2022/08/01 09:57:14;;;;;;;7.30;2.80;;;;;;;24.14;58.71;98793.33;238040;1193;138952;-59
2022/08/01 10:02:36;;;;;;;4.80;2.00;;;;;;;24.30;57.87;98793.25;238342;1192;139272;-58
2022/08/01 10:07:56;;;;;;;4.10;2.20;;;;;;;24.43;57.01;98795.52;238430;1191;139404;-59
2022/08/01 10:13:01;;;;;;;8.00;2.10;;;;;;;24.50;56.61;98794.23;238513;1192;139627;-58
2022/08/01 10:18:08;;;;;;;7.60;2.70;;;;;;;24.59;56.21;98791.27;238320;1192;139234;-60
2022/08/01 10:23:33;;;;;;;4.30;2.10;;;;;;;24.78;56.03;98782.38;238401;1192;139529;-60
2022/08/01 10:28:47;;;;;;;10.10;7.80;;;;;;;24.99;55.64;98783.37;238571;1192;139170;-61
2022/08/01 10:33:51;;;;;;;17.70;14.40;;;;;;;25.12;55.17;98782.76;238109;1192;140385;-60
2022/08/01 10:38:55;;;;;;;4.50;2.10;;;;;;;25.28;54.73;98783.58;238133;1192;139623;-60
2022/08/01 10:44:02;;;;;;;9.40;4.30;;;;;;;25.36;54.25;98777.38;238321;1192;139476;-57
2022/08/01 10:49:15;;;;;;;75.60;64.30;;;;;;;25.47;54.32;98770.96;238680;1190;139451;-60
2022/08/01 10:54:18;;;;;;;15.10;8.90;;;;;;;25.70;53.80;98770.34;238505;1190;140113;-59
2022/08/01 10:59:23;;;;;;;4.80;2.20;;;;;;;25.95;53.81;98768.90;238180;1193;140623;-58
2022/08/01 11:04:55;;;;;;;5.30;1.60;;;;;;;26.07;52.69;98768.98;238292;1192;140496;-60
2022/08/01 11:10:09;;;;;;;3.40;1.80;;;;;;;26.02;52.10;98770.66;238634;1192;139505;-60
2022/08/01 11:15:24;;;;;;;14.10;11.40;;;;;;;26.11;52.10;98769.36;238314;1192;140393;-59
2022/08/01 11:20:35;;;;;;;6.20;2.40;;;;;;;26.22;51.73;98770.80;237829;1192;139317;-60
2022/08/01 11:25:46;;;;;;;5.00;1.60;;;;;;;26.18;51.10;98770.99;238354;1192;138970;-60
2022/08/01 11:31:10;;;;;;;3.60;2.00;;;;;;;26.10;50.80;98773.10;238686;1190;139373;-59
2022/08/01 11:36:17;;;;;;;3.80;1.80;;;;;;;26.03;50.89;98767.31;238517;1191;139137;-59
2022/08/01 11:41:26;;;;;;;3.30;1.80;;;;;;;26.09;50.55;98771.91;238244;1192;139202;-60
2022/08/01 11:46:52;;;;;;;3.00;1.70;;;;;;;26.19;50.30;98765.22;238239;1192;139206;-59
2022/08/01 11:52:03;;;;;;;4.00;1.70;;;;;;;26.28;50.19;98763.50;238680;1192;139382;-60
2022/08/01 11:57:13;;;;;;;4.00;1.50;;;;;;;26.45;49.70;98767.27;238237;1192;138847;-59
2022/08/01 12:02:28;;;;;;;4.70;1.90;;;;;;;26.40;49.09;98760.56;238171;1192;138926;-59
2022/08/01 12:07:35;;;;;;;2.60;1.70;;;;;;;26.44;49.13;98759.73;238701;1190;139146;-58
2022/08/01 12:12:45;;;;;;;164.10;127.90;;;;;;;26.49;49.09;98762.52;238598;1191;245622;-60
2022/08/01 12:17:56;;;;;;;11.30;6.20;;;;;;;26.61;49.06;98759.54;237839;1192;140284;-59
2022/08/01 12:23:05;;;;;;;6.00;2.40;;;;;;;26.84;48.95;98759.94;238128;1191;139862;-57
2022/08/01 12:28:09;;;;;;;6.90;2.10;;;;;;;27.12;48.58;98763.52;238406;1191;139875;-58
2022/08/01 12:33:18;;;;;;;5.70;1.70;;;;;;;27.33;48.15;98764.02;238530;1191;140587;-56
2022/08/01 12:38:24;;;;;;;7.90;2.00;;;;;;;27.52;47.77;98756.99;238466;1190;138871;-58
2022/08/01 12:43:31;;;;;;;4.60;1.70;;;;;;;27.62;47.41;98755.61;238145;1191;139993;-56
2022/08/01 12:48:34;;;;;;;3.30;1.60;;;;;;;27.70;47.27;98758.44;238356;1192;139017;-57
2022/08/01 12:53:37;;;;;;;8.50;2.00;;;;;;;27.85;47.48;98755.00;238570;1190;138879;-57
2022/08/01 12:58:43;;;;;;;4.10;1.70;;;;;;;28.03;47.21;98755.17;238274;1192;139475;-57
2022/08/01 13:04:06;;;;;;;5.60;1.90;;;;;;;28.17;46.77;98748.02;238149;1191;139168;-58
2022/08/01 13:09:13;;;;;;;2.70;1.80;;;;;;;28.22;46.28;98744.63;238515;1190;139072;-57
2022/08/01 13:14:29;;;;;;;5.10;2.20;;;;;;;28.16;46.01;98743.85;238381;1192;139667;-56
2022/08/01 13:19:46;;;;;;;5.30;1.90;;;;;;;28.11;46.08;98741.68;238178;1192;139289;-56
2022/08/01 13:24:49;;;;;;;92.40;82.70;;;;;;;28.11;45.90;98744.46;238430;1191;139064;-57
2022/08/01 13:29:53;;;;;;;6.80;4.00;;;;;;;27.98;45.82;98743.43;238434;1192;140336;-58
2022/08/01 13:35:10;;;;;;;4.50;1.90;;;;;;;27.93;45.95;98746.80;238576;1190;140235;-58
2022/08/01 13:40:24;;;;;;;4.90;2.70;;;;;;;27.90;46.03;98743.88;238269;1191;140233;-57
2022/08/01 13:45:27;;;;;;;3.30;2.00;;;;;;;27.85;45.82;98743.94;238138;1191;140113;-58
2022/08/01 13:50:31;;;;;;;9.60;2.10;;;;;;;27.79;45.66;98750.30;238504;1191;138846;-57
2022/08/01 13:55:34;;;;;;;6.00;2.10;;;;;;;27.72;45.57;98753.70;238785;1191;139592;-57
2022/08/01 14:00:37;;;;;;;13.20;7.20;;;;;;;27.63;45.32;98752.11;238150;1191;138765;-57
2022/08/01 14:05:40;;;;;;;10.10;4.40;;;;;;;27.55;45.42;98751.77;238249;1191;139124;-57
2022/08/01 14:10:43;;;;;;;7.40;2.80;;;;;;;27.47;45.36;98756.62;238470;1192;139447;-56
2022/08/01 14:15:47;;;;;;;4.10;1.80;;;;;;;27.40;45.36;98762.84;238608;1192;139308;-57
2022/08/01 14:20:51;;;;;;;4.30;2.20;;;;;;;27.33;45.11;98768.13;238311;1192;142572;-57
2022/08/01 14:25:58;;;;;;;8.70;2.50;;;;;;;27.19;44.62;98768.55;238218;1191;140339;-57
2022/08/01 14:31:07;;;;;;;3.60;2.10;;;;;;;27.06;44.78;98771.08;238615;1191;139186;-57
2022/08/01 14:36:11;;;;;;;3.70;2.20;;;;;;;26.92;44.79;98772.73;238722;1190;138892;-58
2022/08/01 14:41:33;;;;;;;6.80;2.10;;;;;;;26.85;45.19;98775.11;238279;1192;139097;-58
2022/08/01 14:46:36;;;;;;;17.20;12.10;;;;;;;26.83;45.25;98775.31;238030;1191;138760;-58
2022/08/01 14:51:59;;;;;;;8.40;3.90;;;;;;;26.91;45.54;98777.60;238638;1190;139919;-57
2022/08/01 14:57:03;;;;;;;8.10;5.80;;;;;;;27.05;45.53;98769.72;238554;1192;139058;-57
2022/08/01 15:02:06;;;;;;;6.00;3.60;;;;;;;27.16;45.73;98771.23;238257;1191;138878;-58
2022/08/01 15:07:11;;;;;;;6.90;2.50;;;;;;;27.19;45.33;98772.46;238043;1191;138771;-56
2022/08/01 15:12:14;;;;;;;4.30;2.80;;;;;;;27.16;45.26;98772.46;238318;1190;139062;-56
2022/08/01 15:17:20;;;;;;;5.00;2.30;;;;;;;27.07;45.09;98769.44;238512;1192;138939;-57
2022/08/01 15:22:25;;;;;;;295.80;258.60;;;;;;;26.99;45.13;98769.84;238326;1191;140315;-58
2022/08/01 15:27:28;;;;;;;15.10;11.60;;;;;;;26.93;45.46;98769.91;238106;1191;139602;-57
2022/08/01 15:32:31;;;;;;;7.30;6.00;;;;;;;26.87;45.51;98768.17;238343;1192;140860;-57
2022/08/01 15:37:34;;;;;;;4.30;3.10;;;;;;;26.82;45.62;98771.95;238782;1190;139115;-58
2022/08/01 15:42:45;;;;;;;6.30;3.10;;;;;;;26.75;45.70;98771.80;238503;1190;139476;-57
2022/08/01 15:47:48;;;;;;;7.00;3.40;;;;;;;26.70;45.83;98771.99;238191;1191;139088;-59
2022/08/01 15:52:50;;;;;;;4.70;3.30;;;;;;;26.63;46.01;98773.56;238576;1190;139031;-57
2022/08/01 15:57:54;;;;;;;5.60;3.20;;;;;;;26.57;46.21;98772.66;238501;1190;139295;-59
2022/08/01 16:02:57;;;;;;;5.20;3.20;;;;;;;26.51;46.36;98768.32;238107;1191;139752;-59
2022/08/01 16:08:00;;;;;;;6.20;3.60;;;;;;;26.45;46.48;98769.41;238116;1191;140444;-57
2022/08/01 16:13:05;;;;;;;67.30;55.00;;;;;;;26.39;46.79;98766.45;238613;1190;140743;-57
2022/08/01 16:18:14;;;;;;;5.90;4.30;;;;;;;26.36;46.85;98770.75;238742;1190;139338;-59
2022/08/01 16:23:17;;;;;;;30.90;25.60;;;;;;;26.32;46.89;98773.63;238236;1192;140736;-59
2022/08/01 16:28:20;;;;;;;5.00;3.50;;;;;;;26.31;47.03;98773.79;237879;1193;139563;-59
2022/08/01 16:33:23;;;;;;;4.90;2.80;;;;;;;26.28;47.30;98769.29;238482;1190;139445;-58
2022/08/01 16:38:46;;;;;;;7.10;3.20;;;;;;;26.24;47.18;98771.63;238558;1191;141091;-58
2022/08/01 16:43:49;;;;;;;4.40;3.20;;;;;;;26.21;47.36;98775.33;238332;1191;139024;-59
2022/08/01 16:48:56;;;;;;;7.10;3.00;;;;;;;26.20;47.57;98770.22;238474;1191;138969;-59
2022/08/01 16:53:59;;;;;;;6.80;3.40;;;;;;;26.19;47.63;98771.21;238652;1190;139279;-58
2022/08/01 16:59:05;;;;;;;4.60;3.30;;;;;;;26.17;47.68;98776.83;238822;1190;139222;-59
2022/08/01 17:04:09;;;;;;;6.20;3.80;;;;;;;26.14;47.86;98779.50;238359;1191;140596;-59
2022/08/01 17:09:12;;;;;;;5.40;3.60;;;;;;;26.06;47.72;98785.20;238009;1190;140274;-58
2022/08/01 17:14:16;;;;;;;8.30;3.60;;;;;;;26.00;47.92;98786.92;238347;1191;139068;-59
2022/08/01 17:19:19;;;;;;;5.10;3.20;;;;;;;25.96;48.17;98792.27;238823;1190;139392;-60
2022/08/01 17:24:34;;;;;;;4.80;3.40;;;;;;;25.90;48.28;98793.54;238091;1191;138811;-58
2022/08/01 17:29:38;;;;;;;23.60;21.20;;;;;;;25.81;48.46;98799.55;238201;1191;139569;-58
2022/08/01 17:34:45;;;;;;;8.30;6.20;;;;;;;25.71;48.63;98801.89;238422;1191;139614;-57
2022/08/01 17:39:49;;;;;;;4.10;3.30;;;;;;;25.64;49.05;98803.73;238809;1190;139249;-58
2022/08/01 17:44:51;;;;;;;5.00;3.30;;;;;;;25.56;49.25;98807.31;238386;1190;139342;-57
2022/08/01 17:50:01;;;;;;;6.10;3.40;;;;;;;25.49;49.44;98812.61;238177;1191;139414;-57
2022/08/01 17:55:05;;;;;;;5.60;3.90;;;;;;;25.43;49.69;98814.23;238803;1190;138519;-57
2022/08/01 18:00:28;;;;;;;109.90;96.10;;;;;;;25.36;49.90;98818.66;238665;1190;139564;-56
2022/08/01 18:05:32;;;;;;;7.40;4.50;;;;;;;25.26;50.29;98824.48;238074;1191;139761;-56
2022/08/01 18:10:39;;;;;;;5.60;3.10;;;;;;;25.17;50.51;98825.94;238305;1191;140286;-55
2022/08/01 18:15:43;;;;;;;122.00;109.00;;;;;;;25.08;50.70;98832.48;238600;1191;139479;-58
2022/08/01 18:20:46;;;;;;;8.80;7.50;;;;;;;24.98;50.96;98837.77;238800;1190;140219;-58
2022/08/01 18:25:49;;;;;;;5.60;3.70;;;;;;;24.86;51.26;98843.31;238121;1192;138974;-58
2022/08/01 18:30:56;;;;;;;4.40;3.30;;;;;;;24.69;51.54;98846.42;238426;1191;139918;-57
2022/08/01 18:35:59;;;;;;;4.80;3.70;;;;;;;24.58;51.98;98844.79;238583;1191;138563;-57
2022/08/01 18:41:08;;;;;;;4.80;3.40;;;;;;;24.49;52.40;98845.34;238765;1191;140455;-57
2022/08/01 18:46:11;;;;;;;5.00;3.70;;;;;;;24.42;52.68;98847.96;238382;1191;138882;-58
2022/08/01 18:51:14;;;;;;;6.70;3.90;;;;;;;24.34;52.87;98849.45;237804;1191;139409;-57
2022/08/01 18:56:17;;;;;;;7.10;3.90;;;;;;;24.28;53.11;98857.66;238601;1190;138850;-58
2022/08/01 19:01:21;;;;;;;5.40;3.70;;;;;;;24.21;53.45;98863.95;238919;1190;139131;-57
2022/08/01 19:06:25;;;;;;;5.00;3.70;;;;;;;24.16;53.64;98873.97;238364;1190;139267;-57
2022/08/01 19:11:30;;;;;;;9.30;7.10;;;;;;;24.11;54.02;98882.93;238332;1190;140099;-56
2022/08/01 19:16:34;;;;;;;7.60;4.00;;;;;;;24.07;54.21;98887.25;238506;1190;139159;-58
2022/08/01 19:21:38;;;;;;;6.70;3.80;;;;;;;24.03;54.42;98890.29;238707;1190;140214;-57
2022/08/01 19:26:49;;;;;;;5.20;3.70;;;;;;;23.97;54.53;98890.98;238377;1190;139669;-55
2022/08/01 19:31:53;;;;;;;6.00;3.70;;;;;;;23.97;54.80;98899.52;238011;1191;139144;-58
2022/08/01 19:36:57;;;;;;;5.80;3.80;;;;;;;23.98;54.96;98901.38;238645;1190;139934;-58
2022/08/01 19:42:00;;;;;;;7.20;4.40;;;;;;;24.00;55.06;98898.73;238693;1190;139126;-58
2022/08/01 19:47:04;;;;;;;5.70;4.30;;;;;;;24.02;55.21;98897.56;238516;1190;139325;-58
2022/08/01 19:52:08;;;;;;;7.00;4.20;;;;;;;24.00;55.26;98898.41;238047;1191;138919;-58
2022/08/01 19:57:14;;;;;;;5.80;4.50;;;;;;;23.97;55.50;98900.73;238472;1190;141762;-57
2022/08/01 20:02:21;;;;;;;6.90;4.30;;;;;;;23.98;55.55;98902.95;238772;1190;139904;-58
2022/08/01 20:07:26;;;;;;;5.10;4.20;;;;;;;23.99;55.68;98904.33;238177;1191;140618;-58
2022/08/01 20:12:29;;;;;;;10.30;6.90;;;;;;;23.95;55.73;98906.98;238275;1191;139207;-59
2022/08/01 20:17:32;;;;;;;8.30;4.80;;;;;;;23.90;55.86;98908.45;238511;1191;139101;-55
2022/08/01 20:22:39;;;;;;;5.30;4.70;;;;;;;23.85;56.06;98908.87;238594;1190;138761;-58
2022/08/01 20:27:44;;;;;;;9.90;4.90;;;;;;;23.81;56.29;98912.23;238267;1191;139477;-58
2022/08/01 20:32:48;;;;;;;8.40;4.70;;;;;;;23.82;56.45;98913.41;238292;1191;140125;-58
2022/08/01 20:37:52;;;;;;;7.50;4.40;;;;;;;23.87;56.67;98915.95;238409;1191;141262;-58
2022/08/01 20:43:10;;;;;;;8.90;5.00;;;;;;;23.89;56.79;98920.60;238544;1190;139386;-58
2022/08/01 20:48:15;;;;;;;8.30;5.30;;;;;;;23.88;56.92;98925.30;238238;1191;139160;-58
2022/08/01 20:53:18;;;;;;;7.80;5.00;;;;;;;23.81;56.94;98924.16;237755;1191;138967;-58
2022/08/01 20:58:43;;;;;;;9.80;5.40;;;;;;;23.76;57.17;98929.34;238362;1190;139531;-57
2022/08/01 21:04:31;;;;;;;8.00;5.40;;;;;;;23.68;57.31;98927.20;238741;1190;139092;-57
2022/08/01 21:09:37;;;;;;;10.60;5.80;;;;;;;23.59;57.66;98930.38;238049;1192;138637;-58
2022/08/01 21:14:54;;;;;;;9.10;4.90;;;;;;;23.51;57.72;98935.54;238201;1191;139353;-58
2022/08/01 21:20:05;;;;;;;9.30;5.20;;;;;;;23.49;58.01;98937.99;238644;1191;139629;-58
2022/08/01 21:25:12;;;;;;;9.00;5.60;;;;;;;23.47;58.19;98942.14;238732;1192;139979;-60
2022/08/01 21:30:16;;;;;;;11.30;5.90;;;;;;;23.49;58.45;98940.64;238305;1191;139066;-58
2022/08/01 21:35:21;;;;;;;10.60;6.00;;;;;;;23.47;58.62;98947.08;238272;1193;139480;-58
2022/08/01 21:40:24;;;;;;;9.20;6.00;;;;;;;23.42;58.65;98948.82;238822;1190;139901;-58
2022/08/01 21:45:28;;;;;;;8.40;6.20;;;;;;;23.38;58.91;98951.00;238665;1190;139212;-58
2022/08/01 21:50:53;;;;;;;8.60;5.90;;;;;;;23.34;59.05;98946.00;238355;1191;138885;-58
2022/08/01 21:56:10;;;;;;;8.90;6.10;;;;;;;23.34;59.26;98946.17;238313;1192;140169;-58
2022/08/01 22:01:39;;;;;;;8.20;6.60;;;;;;;23.33;59.28;98948.73;238845;1190;143834;-58
2022/08/01 22:06:57;;;;;;;9.50;6.80;;;;;;;23.30;59.51;98954.34;238642;1190;139816;-58
2022/08/01 22:12:05;;;;;;;10.80;7.40;;;;;;;23.23;59.61;98951.29;238352;1192;139640;-57
2022/08/01 22:17:12;;;;;;;12.30;7.80;;;;;;;23.16;59.71;98951.16;238225;1192;139529;-58
2022/08/01 22:22:15;;;;;;;15.20;7.60;;;;;;;23.10;59.81;98953.12;238317;1192;139794;-56
2022/08/01 22:27:40;;;;;;;12.80;6.60;;;;;;;23.06;60.02;98952.34;238412;1192;139269;-57
2022/08/01 22:33:04;;;;;;;13.90;6.40;;;;;;;23.04;60.14;98949.36;238578;1191;140336;-57
2022/08/01 22:38:19;;;;;;;11.10;7.80;;;;;;;23.05;60.39;98948.20;238601;1191;140654;-55
2022/08/01 22:43:41;;;;;;;10.90;8.10;;;;;;;23.03;60.39;98949.70;238314;1192;139833;-57
2022/08/01 22:48:49;;;;;;;12.50;7.80;;;;;;;23.00;60.48;98952.44;238220;1192;139924;-58
2022/08/01 22:54:05;;;;;;;14.00;7.80;;;;;;;22.95;60.42;98945.57;238563;1191;138940;-57
2022/08/01 22:59:31;;;;;;;9.80;7.80;;;;;;;22.86;60.46;98946.18;238453;1191;139674;-58
2022/08/01 23:04:48;;;;;;;9.00;7.00;;;;;;;22.80;60.60;98947.77;238330;1190;138959;-57
2022/08/01 23:09:52;;;;;;;9.00;7.30;;;;;;;22.77;60.72;98944.42;238347;1192;139993;-58
2022/08/01 23:14:59;;;;;;;13.90;7.90;;;;;;;22.76;60.89;98936.48;238464;1192;139539;-57
2022/08/01 23:20:05;;;;;;;10.60;8.00;;;;;;;22.77;61.01;98938.89;238583;1191;140624;-60
2022/08/01 23:25:11;;;;;;;11.30;8.50;;;;;;;22.74;60.93;98939.45;238141;1192;138955;-59
2022/08/01 23:30:14;;;;;;;10.20;8.30;;;;;;;22.66;60.92;98932.90;237236;1192;138869;-56